createdAt,value
2019-05-30T00:01:00.068Z,8.70
2019-05-30T00:05:56.287Z,8.90
2019-05-30T00:10:52.087Z,7.97
2019-05-30T00:15:47.797Z,7.93
2019-05-30T00:20:43.600Z,7.87
2019-05-30T00:25:39.329Z,8.10
2019-05-30T00:30:35.174Z,8.00
2019-05-30T00:35:30.923Z,9.33
2019-05-30T00:40:26.645Z,9.77
2019-05-30T00:45:22.356Z,7.37
2019-05-30T00:50:18.199Z,9.30
2019-05-30T00:55:14.510Z,9.00
2019-05-30T01:00:11.528Z,8.43
2019-05-30T01:05:08.137Z,9.90
2019-05-30T01:10:07.546Z,8.20
2019-05-30T01:15:05.189Z,7.20
2019-05-30T01:20:01.299Z,7.40
2019-05-30T01:24:57.396Z,10.53
2019-05-30T01:29:53.238Z,6.97
2019-05-30T01:34:48.965Z,8.97
2019-05-30T01:39:44.770Z,7.47
2019-05-30T01:44:40.496Z,7.20
2019-05-30T01:49:36.198Z,8.13
2019-05-30T01:54:32.073Z,8.50
2019-05-30T01:59:28.116Z,7.87
2019-05-30T02:04:23.827Z,8.17
2019-05-30T02:09:19.653Z,8.27
2019-05-30T02:14:15.434Z,8.27
2019-05-30T02:19:11.426Z,7.90
2019-05-30T02:24:07.992Z,8.60
2019-05-30T02:29:04.190Z,8.07
2019-05-30T02:34:00.990Z,8.27
2019-05-30T02:38:57.273Z,9.97
2019-05-30T02:43:53.008Z,9.13
2019-05-30T02:48:58.884Z,8.27
2019-05-30T02:53:46.474Z,10.93
2019-05-30T02:58:42.536Z,11.77
2019-05-30T03:03:38.314Z,9.00
2019-05-30T03:08:34.141Z,9.00
2019-05-30T03:13:30.173Z,8.57
2019-05-30T03:18:26.116Z,8.30
2019-05-30T03:23:21.833Z,8.43
2019-05-30T03:28:17.630Z,9.33
2019-05-30T03:33:31.528Z,8.57
2019-05-30T03:38:13.515Z,10.00
2019-05-30T03:43:11.612Z,10.83
2019-05-30T03:48:09.954Z,10.60
2019-05-30T03:53:09.429Z,10.87
2019-05-30T03:58:16.829Z,10.50
2019-05-30T04:03:15.664Z,10.03
2019-05-30T04:08:14.499Z,10.50
2019-05-30T04:13:14.497Z,11.60
2019-05-30T04:18:12.512Z,12.57
2019-05-30T04:23:08.679Z,9.87
2019-05-30T04:28:07.664Z,10.20
2019-05-30T04:33:17.378Z,12.33
2019-05-30T04:38:01.135Z,14.67
2019-05-30T04:42:57.155Z,9.63
2019-05-30T04:47:53.108Z,11.00
2019-05-30T04:52:48.826Z,10.67
2019-05-30T04:57:44.619Z,11.57
2019-05-30T05:02:40.354Z,11.63
2019-05-30T05:07:36.372Z,12.60
2019-05-30T05:12:32.246Z,12.17
2019-05-30T05:17:28.043Z,12.37
2019-05-30T05:22:23.862Z,15.80
2019-05-30T05:27:19.737Z,14.17
2019-05-30T05:32:16.193Z,12.60
2019-05-30T05:37:12.365Z,14.57
2019-05-30T05:42:08.563Z,15.67
2019-05-30T05:47:05.120Z,16.53
2019-05-30T05:52:00.942Z,16.40
2019-05-30T05:56:56.724Z,17.13
2019-05-30T06:01:52.486Z,15.87
2019-05-30T06:06:48.661Z,16.03
2019-05-30T06:11:44.511Z,17.00
2019-05-30T06:16:40.349Z,16.97
2019-05-30T06:21:36.150Z,16.43
2019-05-30T06:26:31.855Z,15.70
2019-05-30T06:31:28.691Z,14.93
2019-05-30T06:36:25.077Z,13.53
2019-05-30T06:41:21.492Z,13.40
2019-05-30T06:46:17.316Z,12.83
2019-05-30T06:51:14.668Z,11.67
2019-05-30T06:56:10.661Z,10.40
2019-05-30T07:01:06.490Z,13.00
2019-05-30T07:06:02.820Z,9.97
2019-05-30T07:10:58.922Z,14.13
2019-05-30T07:15:54.638Z,5.53
2019-05-30T07:20:50.427Z,8.57
2019-05-30T07:25:46.258Z,5.43
2019-05-30T07:30:41.975Z,4.93
2019-05-30T07:35:37.694Z,4.60
2019-05-30T07:40:33.428Z,7.57
2019-05-30T07:45:29.131Z,4.73
2019-05-30T07:50:24.840Z,3.73
2019-05-30T07:55:20.841Z,4.50
2019-05-30T08:00:17.177Z,4.33
2019-05-30T08:05:23.431Z,3.63
2019-05-30T08:10:11.254Z,2.60
2019-05-30T08:15:07.676Z,1.67
2019-05-30T08:20:05.283Z,4.97
2019-05-30T08:25:01.117Z,2.77
2019-05-30T08:29:56.836Z,2.50
2019-05-30T08:34:52.867Z,3.43
2019-05-30T08:39:48.676Z,4.27
2019-05-30T08:44:44.413Z,2.53
2019-05-30T08:49:40.467Z,2.75
2019-05-30T08:54:36.501Z,4.33
2019-05-30T08:59:32.430Z,2.35
2019-05-30T09:04:28.485Z,2.25
2019-05-30T09:09:24.195Z,5.10
2019-05-30T09:14:19.937Z,2.05
2019-05-30T09:19:15.667Z,2.37
2019-05-30T09:24:11.537Z,2.52
2019-05-30T09:29:07.390Z,1.60
2019-05-30T09:34:03.427Z,2.58
2019-05-30T09:38:59.141Z,3.80
2019-05-30T09:43:54.881Z,2.00
2019-05-30T09:48:51.772Z,2.22
2019-05-30T09:53:48.286Z,2.70
2019-05-30T09:58:44.152Z,2.52
2019-05-30T10:03:39.893Z,7.12
2019-05-30T10:08:35.948Z,3.00
2019-05-30T10:13:31.740Z,2.02
2019-05-30T10:18:27.495Z,2.55
2019-05-30T10:23:23.280Z,2.30
2019-05-30T10:28:19.273Z,2.58
2019-05-30T10:33:15.174Z,1.87
2019-05-30T10:38:11.002Z,2.10
2019-05-30T10:43:08.555Z,2.08
2019-05-30T10:48:04.423Z,1.70
2019-05-30T10:53:00.140Z,1.70
2019-05-30T10:57:59.307Z,2.42
2019-05-30T11:02:54.905Z,1.80
2019-05-30T11:08:06.031Z,1.50
2019-05-30T11:13:05.674Z,1.70
2019-05-30T11:17:57.737Z,3.75
2019-05-30T11:22:54.581Z,4.15
2019-05-30T11:27:50.621Z,3.72
2019-05-30T11:32:46.634Z,5.55
2019-05-30T11:37:42.706Z,3.27
2019-05-30T11:42:38.442Z,4.00
2019-05-30T11:47:34.607Z,2.70
2019-05-30T11:52:30.324Z,2.67
2019-05-30T11:57:26.036Z,1.90
2019-05-30T12:02:21.780Z,3.27
2019-05-30T12:07:17.518Z,2.20
2019-05-30T12:12:13.218Z,2.77
2019-05-30T12:17:09.498Z,6.55
2019-05-30T12:22:05.401Z,1.87
2019-05-30T12:27:02.312Z,4.30
2019-05-30T12:32:00.213Z,4.72
2019-05-30T12:36:56.440Z,3.35
2019-05-30T12:41:52.789Z,2.37
2019-05-30T12:46:48.657Z,2.65
2019-05-30T12:51:44.372Z,14.28
2019-05-30T12:56:40.086Z,7.12
2019-05-30T13:01:35.807Z,7.22
2019-05-30T13:06:31.686Z,4.00
2019-05-30T13:11:27.458Z,2.58
2019-05-30T13:16:23.239Z,2.33
2019-05-30T13:21:19.326Z,2.52
2019-05-30T13:26:15.053Z,4.28
2019-05-30T13:31:10.886Z,9.03
2019-05-30T13:36:07.239Z,4.50
2019-05-30T13:41:03.581Z,4.10
2019-05-30T13:46:00.199Z,3.85
2019-05-30T13:50:56.354Z,1.82
2019-05-30T13:55:52.063Z,3.00
2019-05-30T14:00:48.074Z,2.75
2019-05-30T14:05:43.894Z,4.97
2019-05-30T14:10:39.705Z,2.00
2019-05-30T14:15:35.526Z,4.90
2019-05-30T14:20:31.355Z,2.75
2019-05-30T14:25:27.164Z,3.62
2019-05-30T14:30:23.227Z,2.65
2019-05-30T14:35:19.106Z,1.98
2019-05-30T14:40:15.447Z,3.37
2019-05-30T14:45:12.637Z,2.00
2019-05-30T14:50:09.116Z,1.70
2019-05-30T14:55:06.750Z,1.60
2019-05-30T15:00:13.890Z,2.87
2019-05-30T15:05:09.816Z,2.55
2019-05-30T15:10:06.610Z,2.00
2019-05-30T15:15:07.349Z,25.02
2019-05-30T15:20:06.006Z,2.77
2019-05-30T15:25:03.126Z,3.20
2019-05-30T15:29:58.931Z,2.77
2019-05-30T15:34:54.889Z,2.30
2019-05-30T15:44:52.380Z,3.17
2019-05-30T16:09:47.077Z,2.47
2019-05-30T16:14:41.132Z,2.25
2019-05-30T20:05:47.775Z,3.35
2019-05-30T20:10:43.673Z,3.05
2019-05-30T20:15:39.612Z,2.90
2019-05-30T20:20:50.446Z,4.97
2019-05-30T20:25:34.445Z,3.72
2019-05-30T20:30:30.364Z,4.92
2019-05-30T20:35:26.109Z,2.08
2019-05-30T20:40:21.802Z,2.40
2019-05-30T20:45:17.725Z,3.90
2019-05-30T20:50:15.015Z,2.35
2019-05-30T20:55:12.444Z,3.17
2019-05-30T21:00:09.018Z,3.05
2019-05-30T21:05:05.398Z,2.45
2019-05-30T21:10:02.070Z,2.72
2019-05-30T21:14:59.691Z,2.40
2019-05-30T21:19:55.412Z,2.75
2019-05-30T21:24:51.202Z,2.60
2019-05-30T21:29:47.619Z,6.00
2019-05-30T21:34:44.546Z,3.15
2019-05-30T21:39:42.043Z,3.17
2019-05-30T21:44:38.465Z,10.63
2019-05-30T21:49:34.561Z,3.52
2019-05-30T21:54:30.265Z,4.30
2019-05-30T21:59:26.039Z,2.75
2019-05-30T22:04:21.822Z,2.80
2019-05-30T22:09:17.917Z,3.07
2019-05-30T22:14:13.668Z,3.42
2019-05-30T22:19:09.501Z,3.07
2019-05-30T22:24:05.232Z,7.10
2019-05-30T22:29:01.091Z,4.72
2019-05-30T22:33:56.790Z,4.60
2019-05-30T22:38:53.144Z,2.80
2019-05-30T22:43:49.138Z,5.20
2019-05-30T22:48:46.392Z,3.17
2019-05-30T22:53:42.232Z,3.60
2019-05-30T22:58:37.957Z,3.30
2019-05-30T23:03:33.690Z,4.97
2019-05-30T23:08:29.415Z,2.60
2019-05-30T23:13:39.468Z,5.80
2019-05-30T23:18:23.045Z,3.77
2019-05-30T23:23:18.856Z,2.80
2019-05-30T23:28:14.532Z,2.80
2019-05-30T23:33:10.379Z,3.50
2019-05-30T23:38:06.110Z,3.10
2019-05-30T23:43:01.808Z,2.90
2019-05-30T23:47:57.693Z,3.77
2019-05-30T23:52:54.102Z,3.60
2019-05-30T23:57:50.343Z,3.30
